Time;durP1;ratioP1;P1;durP2;ratioP2;P2;SDS_P1;SDS_P2;PMS_P1;PMS_P2;Temp;Humidity;BMP_temperature;BMP_pressure;BME280_temperature;BME280_humidity;BME280_pressure;Samples;Min_cycle;Max_cycle;Signal;HPM_P1;HPM_P2
2022/06/17 00:01:54;;;;;;;2.73;2.50;;;;;;;;;;5051300;28;20492;-92
2022/06/17 00:04:22;;;;;;;3.60;2.33;;;;;;;;;;5053922;28;20438;-91
2022/06/17 00:06:51;;;;;;;2.40;1.87;;;16.30;93.30;;;;;;5053008;28;20450;-91
2022/06/17 00:09:21;;;;;;;1.70;1.60;;;16.30;94.10;;;;;;5054117;28;20447;-92
2022/06/17 00:11:48;;;;;;;2.47;1.90;;;;;;;;;;5054094;28;20491;-91
2022/06/17 00:14:17;;;;;;;2.30;1.97;;;16.30;93.00;;;;;;5054007;28;20461;-93
2022/06/17 00:16:44;;;;;;;3.80;1.50;;;16.40;90.60;;;;;;5054004;28;20450;-91
2022/06/17 00:19:13;;;;;;;2.17;2.03;;;16.30;93.00;;;;;;5054114;28;20977;-91
2022/06/17 00:21:43;;;;;;;2.20;2.00;;;16.30;92.50;;;;;;5053088;28;20481;-91
2022/06/17 00:24:15;;;;;;;2.17;1.47;;;16.30;91.90;;;;;;5051560;28;20450;-92
2022/06/17 00:26:42;;;;;;;1.90;1.80;;;;;;;;;;5060976;28;20447;-91
2022/06/17 00:29:11;;;;;;;3.03;1.70;;;16.10;93.80;;;;;;5063360;28;20478;-92
2022/06/17 00:31:38;;;;;;;2.20;1.73;;;;;;;;;;5059334;28;20583;-91
2022/06/17 00:34:05;;;;;;;2.50;1.97;;;;;;;;;;5058130;28;20454;-90
2022/06/17 00:36:34;;;;;;;1.83;1.73;;;15.80;96.20;;;;;;5052204;28;20450;-92
2022/06/17 00:39:02;;;;;;;4.87;2.03;;;;;;;;;;5053564;28;20969;-91
2022/06/17 00:41:33;;;;;;;2.17;1.87;;;15.70;96.50;;;;;;5051181;28;20941;-91
2022/06/17 00:44:07;;;;;;;3.10;1.97;;;15.60;98.70;;;;;;5053980;28;20446;-89
2022/06/17 00:46:41;;;;;;;2.00;1.73;;;15.50;99.20;;;;;;5054233;28;20454;-91
2022/06/17 00:49:16;;;;;;;2.23;2.03;;;15.40;99.90;;;;;;5053680;28;20454;-92
2022/06/17 00:51:54;;;;;;;1.87;1.77;;;15.30;99.90;;;;;;5053620;28;20489;-90
2022/06/17 00:54:25;;;;;;;1.93;1.80;;;15.30;99.90;;;;;;5053503;28;20511;-92
2022/06/17 00:56:52;;;;;;;2.43;1.70;;;;;;;;;;5056904;28;20434;-89
2022/06/17 00:59:20;;;;;;;4.80;1.90;;;;;;;;;;5060610;28;20453;-91
2022/06/17 01:01:50;;;;;;;2.60;1.87;;;15.20;99.90;;;;;;5054445;28;20469;-91
2022/06/17 01:04:25;;;;;;;3.20;2.13;;;15.20;99.90;;;;;;5053452;28;20447;-90
2022/06/17 01:06:57;;;;;;;2.47;2.27;;;15.40;99.90;;;;;;5048995;28;20438;-92
2022/06/17 01:12:16;;;;;;;2.20;1.87;;;15.20;99.90;;;;;;5053206;28;20586;-90
2022/06/17 01:14:43;;;;;;;2.37;2.00;;;;;;;;;;5053304;28;20458;-91
2022/06/17 01:17:11;;;;;;;6.37;3.17;;;15.00;99.90;;;;;;5053330;28;20742;-92
2022/06/17 01:19:47;;;;;;;2.43;2.23;;;15.00;99.90;;;;;;5053099;28;20465;-90
2022/06/17 01:22:23;;;;;;;2.73;2.53;;;14.90;99.90;;;;;;5046667;28;20465;-91
2022/06/17 01:24:53;;;;;;;3.43;2.83;;;14.90;99.90;;;;;;5053160;28;20450;-94
2022/06/17 01:27:25;;;;;;;3.97;2.03;;;14.80;99.90;;;;;;5053086;28;20446;-92
2022/06/17 01:29:52;;;;;;;3.70;2.90;;;;;;;;;;5052863;28;20473;-92
2022/06/17 01:32:22;;;;;;;5.00;2.30;;;14.70;99.90;;;;;;5052955;28;20489;-91
2022/06/17 01:34:49;;;;;;;2.87;2.60;;;;;;;;;;5053032;28;20451;-90
2022/06/17 01:37:17;;;;;;;3.53;3.00;;;;;;;;;;5049053;28;20459;-91
2022/06/17 01:39:44;;;;;;;2.60;2.40;;;;;;;;;;5052967;28;20470;-92
2022/06/17 01:42:13;;;;;;;3.00;2.57;;;;;;;;;;5052934;28;20888;-90
2022/06/17 01:44:42;;;;;;;2.43;2.23;;;14.60;99.90;;;;;;5052982;28;20439;-91
2022/06/17 01:47:15;;;;;;;2.03;1.93;;;14.50;99.90;;;;;;5052938;28;20937;-92
2022/06/17 01:49:46;;;;;;;2.33;2.13;;;14.50;99.90;;;;;;5052838;28;20442;-90
2022/06/17 01:52:18;;;;;;;2.40;2.20;;;14.40;99.90;;;;;;5054535;28;20489;-91
2022/06/17 01:54:49;;;;;;;2.40;2.20;;;14.40;99.90;;;;;;5056390;28;20453;-92
2022/06/17 01:57:23;;;;;;;2.27;2.07;;;14.30;99.90;;;;;;5053237;28;20466;-93
2022/06/17 01:59:56;;;;;;;2.40;2.20;;;14.50;99.90;;;;;;5056404;28;20964;-93
2022/06/17 02:02:24;;;;;;;3.23;2.33;;;14.40;99.90;;;;;;5056307;28;20458;-94
2022/06/17 02:04:58;;;;;;;2.53;2.33;;;14.30;99.90;;;;;;5056346;28;20446;-91
2022/06/17 02:07:30;;;;;;;2.67;2.30;;;14.30;99.90;;;;;;5055260;28;20478;-93
2022/06/17 02:09:58;;;;;;;3.20;2.47;;;;;;;;;;5056002;28;20981;-92
2022/06/17 02:12:28;;;;;;;2.43;2.10;;;;;;;;;;5053104;28;20486;-93
2022/06/17 02:14:55;;;;;;;4.70;2.50;;;;;;;;;;5056088;28;20447;-92
2022/06/17 02:17:25;;;;;;;3.87;2.50;;;14.20;99.90;;;;;;5056178;28;20450;-91
2022/06/17 02:19:52;;;;;;;4.70;2.80;;;;;;;;;;5056017;28;20437;-92
2022/06/17 02:22:24;;;;;;;3.63;2.60;;;14.10;99.90;;;;;;5054846;28;20450;-91
2022/06/17 02:24:51;;;;;;;2.60;2.40;;;14.10;99.90;;;;;;5056212;28;20838;-92
2022/06/17 02:27:19;;;;;;;3.10;2.80;;;;;;;;;;5053207;28;20447;-93
2022/06/17 02:29:48;;;;;;;3.20;2.90;;;14.00;99.90;;;;;;5055839;28;20490;-93
2022/06/17 02:32:16;;;;;;;2.90;2.70;;;14.00;99.90;;;;;;5055702;28;20490;-91
2022/06/17 02:34:48;;;;;;;3.63;2.50;;;14.00;99.90;;;;;;5055656;28;20910;-92
2022/06/17 02:37:17;;;;;;;3.70;2.60;;;14.00;99.90;;;;;;5052194;28;20453;-90
2022/06/17 02:39:48;;;;;;;3.47;3.07;;;13.90;99.90;;;;;;5055564;28;20485;-91
2022/06/17 02:42:19;;;;;;;2.40;2.10;;;13.90;99.90;;;;;;5055487;28;20447;-89
2022/06/17 02:44:50;;;;;;;2.37;2.17;;;13.90;99.90;;;;;;5053865;28;20484;-91
2022/06/17 02:47:18;;;;;;;5.17;2.53;;;;;;;;;;5047500;28;20814;-93
2022/06/17 02:49:46;;;;;;;3.53;2.70;;;13.80;99.90;;;;;;5055651;28;20447;-93
2022/06/17 02:52:17;;;;;;;3.03;2.57;;;13.70;99.90;;;;;;5054042;28;20486;-91
2022/06/17 02:54:49;;;;;;;2.30;2.10;;;13.50;99.90;;;;;;5055356;28;20529;-93
2022/06/17 02:57:21;;;;;;;3.70;2.83;;;13.50;99.90;;;;;;5055440;28;20442;-91
2022/06/17 02:59:54;;;;;;;2.27;2.07;;;13.40;99.90;;;;;;5055230;28;20451;-93
2022/06/17 03:02:24;;;;;;;2.37;2.17;;;13.50;99.90;;;;;;5054990;28;20466;-94
2022/06/17 03:04:52;;;;;;;2.63;2.43;;;;;;;;;;5055697;28;20992;-94
2022/06/17 03:07:21;;;;;;;2.27;2.07;;;13.30;99.90;;;;;;5054309;28;20455;-92
2022/06/17 03:09:49;;;;;;;4.13;2.20;;;;;;;;;;5055035;28;20451;-93
2022/06/17 03:12:19;;;;;;;3.30;2.60;;;13.20;99.90;;;;;;5055150;28;20517;-92
2022/06/17 03:14:56;;;;;;;8.27;2.77;;;13.20;99.90;;;;;;5053529;28;20443;-92
2022/06/17 03:17:26;;;;;;;4.23;2.60;;;13.20;99.90;;;;;;5054163;28;20457;-92
2022/06/17 03:19:55;;;;;;;2.40;2.20;;;13.20;99.90;;;;;;5047536;28;20481;-90
2022/06/17 03:22:23;;;;;;;2.27;2.07;;;;;;;;;;5063455;28;20454;-92
2022/06/17 03:24:56;;;;;;;2.73;2.10;;;13.10;99.90;;;;;;5053460;28;20454;-92
2022/06/17 03:27:28;;;;;;;3.53;2.50;;;13.20;99.90;;;;;;5051864;28;20492;-93
2022/06/17 03:29:59;;;;;;;2.67;2.47;;;13.20;99.90;;;;;;5054631;28;20477;-91
2022/06/17 03:32:30;;;;;;;3.20;2.00;;;13.10;99.90;;;;;;5054658;28;20501;-90
2022/06/17 03:34:57;;;;;;;2.57;2.37;;;;;;;;;;5051633;28;20454;-93
2022/06/17 03:37:29;;;;;;;2.40;2.20;;;13.20;99.90;;;;;;5053128;28;20489;-90
2022/06/17 03:40:01;;;;;;;3.03;2.13;;;13.20;99.90;;;;;;5054502;28;20845;-90
2022/06/17 03:42:32;;;;;;;2.60;2.40;;;13.60;99.90;;;;;;5054509;28;20454;-91
2022/06/17 03:45:05;;;;;;;3.37;2.87;;;13.30;99.90;;;;;;5054311;28;20451;-93
2022/06/17 03:47:41;;;;;;;2.63;2.40;;;13.30;99.90;;;;;;5051738;28;20526;-90
2022/06/17 03:50:18;;;;;;;2.17;1.97;;;13.40;99.90;;;;;;5054285;28;20438;-92
2022/06/17 03:52:50;;;;;;;2.57;2.37;;;13.40;99.90;;;;;;5052820;28;20920;-90
2022/06/17 03:55:19;;;;;;;2.30;2.10;;;13.40;99.90;;;;;;5054062;28;20455;-91
2022/06/17 03:57:50;;;;;;;3.80;2.37;;;13.40;99.90;;;;;;5054144;28;20450;-94
2022/06/17 04:00:25;;;;;;;4.47;2.27;;;13.40;99.90;;;;;;5052383;28;20795;-93
2022/06/17 04:02:53;;;;;;;2.23;2.00;;;13.40;99.90;;;;;;5054058;28;20446;-93
2022/06/17 04:05:21;;;;;;;2.80;2.33;;;;;;;;;;5050069;28;20451;-94
2022/06/17 04:07:48;;;;;;;2.50;2.30;;;;;;;;;;5052847;28;20443;-91
2022/06/17 04:10:19;;;;;;;3.33;2.97;;;13.60;99.90;;;;;;5053957;28;20473;-93
2022/06/17 04:12:48;;;;;;;2.43;2.27;;;13.60;99.90;;;;;;5050443;28;20494;-91
2022/06/17 04:15:27;;;;;;;2.67;2.33;;;13.70;99.90;;;;;;5053433;28;20454;-90
2022/06/17 04:17:54;;;;;;;2.20;2.00;;;;;;;;;;5056226;28;20443;-95
2022/06/17 04:20:33;;;;;;;3.27;2.57;;;13.80;99.90;;;;;;5054541;28;20442;-94
2022/06/17 04:23:05;;;;;;;2.53;2.33;;;13.80;99.90;;;;;;5053583;28;20510;-91
2022/06/17 04:25:37;;;;;;;2.40;2.20;;;13.90;99.90;;;;;;5054847;28;20462;-92
2022/06/17 04:28:07;;;;;;;6.07;2.60;;;14.00;99.90;;;;;;5053935;28;20984;-90
2022/06/17 04:30:42;;;;;;;2.57;2.37;;;14.10;99.90;;;;;;5053825;28;20856;-91
2022/06/17 04:33:21;;;;;;;2.80;2.50;;;14.10;99.90;;;;;;5053744;28;20852;-91
2022/06/17 04:35:48;;;;;;;2.43;2.20;;;;;;;;;;5051708;28;20453;-92
2022/06/17 04:38:15;;;;;;;7.13;2.37;;;;;;;;;;5051052;28;20481;-92
2022/06/17 04:40:46;;;;;;;2.50;2.30;;;14.20;99.90;;;;;;5050438;28;20443;-90
2022/06/17 04:43:22;;;;;;;2.87;2.33;;;14.30;99.90;;;;;;5053645;28;20451;-92
2022/06/17 04:46:02;;;;;;;3.17;2.50;;;14.40;99.90;;;;;;5053705;28;20516;-92
2022/06/17 04:48:29;;;;;;;3.00;2.70;;;;;;;;;;5053452;28;20852;-92
2022/06/17 04:50:56;;;;;;;2.83;2.27;;;;;;;;;;5052353;28;20950;-93
2022/06/17 04:53:24;;;;;;;4.83;1.80;;;;;;;;;;5050358;28;20529;-91
2022/06/17 04:55:51;;;;;;;2.83;1.77;;;;;;;;;;5053537;28;20438;-92
2022/06/17 04:58:20;;;;;;;3.10;2.43;;;14.80;99.90;;;;;;5050785;28;20446;-93
2022/06/17 05:00:50;;;;;;;2.43;2.20;;;14.80;99.90;;;;;;5053560;28;20450;-92
2022/06/17 05:03:19;;;;;;;2.30;2.10;;;14.90;99.90;;;;;;5050474;28;20450;-92
2022/06/17 05:05:47;;;;;;;3.07;2.10;;;15.10;99.90;;;;;;5053623;28;20965;-93
2022/06/17 05:08:20;;;;;;;4.00;2.33;;;15.10;99.90;;;;;;5052235;28;20493;-93
2022/06/17 05:10:52;;;;;;;6.63;2.33;;;15.30;99.90;;;;;;5053465;28;20438;-92
2022/06/17 05:13:22;;;;;;;3.00;2.47;;;15.40;99.90;;;;;;5050042;28;20494;-93
2022/06/17 05:15:50;;;;;;;2.17;1.90;;;15.60;99.90;;;;;;5052294;28;20459;-93
2022/06/17 05:18:18;;;;;;;2.30;1.87;;;15.80;99.90;;;;;;5053457;28;20435;-93
2022/06/17 05:20:46;;;;;;;2.20;1.90;;;14.70;99.90;;;;;;5050786;28;20455;-94
2022/06/17 05:23:16;;;;;;;3.80;2.03;;;16.10;99.90;;;;;;5052467;28;20458;-92
2022/06/17 05:25:45;;;;;;;2.77;2.00;;;16.30;99.90;;;;;;5052686;28;20446;-92
2022/06/17 05:28:15;;;;;;;1.80;1.70;;;16.50;99.90;;;;;;5056926;28;20481;-93
2022/06/17 05:30:46;;;;;;;1.70;1.60;;;16.70;99.90;;;;;;5057057;28;20455;-94
2022/06/17 05:33:15;;;;;;;2.80;2.10;;;17.00;99.90;;;;;;5056977;28;20513;-91
2022/06/17 05:35:44;;;;;;;3.20;2.07;;;17.20;99.90;;;;;;5057158;28;20475;-94
2022/06/17 05:38:11;;;;;;;4.00;2.00;;;;;;;;;;5056115;28;20474;-94
2022/06/17 05:40:39;;;;;;;2.37;2.17;;;18.70;95.60;;;;;;5058045;28;20921;-92
2022/06/17 05:43:07;;;;;;;4.13;2.10;;;;;;;;;;5055223;28;20493;-89
2022/06/17 05:45:34;;;;;;;3.40;1.83;;;;;;;;;;5058384;28;20455;-92
2022/06/17 05:48:01;;;;;;;2.73;2.30;;;;;;;;;;5058128;28;20794;-94
2022/06/17 05:50:30;;;;;;;2.57;2.07;;;20.50;90.50;;;;;;5056627;28;20450;-91
2022/06/17 05:53:01;;;;;;;6.63;2.33;;;20.70;88.60;;;;;;5052109;28;20591;-91
2022/06/17 05:55:30;;;;;;;2.20;2.00;;;21.00;85.50;;;;;;5056483;28;20446;-92
2022/06/17 05:57:57;;;;;;;2.00;1.90;;;;;;;;;;5056458;28;20455;-90
2022/06/17 06:00:25;;;;;;;2.67;2.03;;;;;;;;;;5056312;28;20500;-86
2022/06/17 06:02:56;;;;;;;2.40;2.20;;;21.40;81.80;;;;;;5056101;28;20473;-89
2022/06/17 06:05:25;;;;;;;2.23;2.13;;;21.40;84.90;;;;;;5053106;28;20565;-90
2022/06/17 06:07:52;;;;;;;2.10;2.00;;;;;;;;;;5052075;28;20466;-87
2022/06/17 06:10:20;;;;;;;5.20;2.53;;;21.30;80.00;;;;;;5056041;28;20434;-90
2022/06/17 06:13:03;;;;;;;2.30;2.13;;;;;;;;;;5052865;28;20551;-88
2022/06/17 06:15:32;;;;;;;3.20;2.00;;;21.60;79.30;;;;;;5055961;28;20949;-87
2022/06/17 06:17:59;;;;;;;2.47;2.27;;;;;;;;;;5055616;28;20442;-89
2022/06/17 06:20:26;;;;;;;2.67;2.00;;;;;;;;;;5055703;28;20446;-88
2022/06/17 06:22:53;;;;;;;2.40;2.20;;;;;;;;;;5054366;28;20461;-89
2022/06/17 06:25:22;;;;;;;2.20;2.10;;;22.80;74.70;;;;;;5052270;28;20439;-86
2022/06/17 06:27:49;;;;;;;2.53;2.33;;;;;;;;;;5055711;28;20442;-90
2022/06/17 06:30:23;;;;;;;3.13;2.30;;;22.60;73.90;;;;;;5055210;28;20439;-85
2022/06/17 06:32:52;;;;;;;2.80;2.43;;;23.00;72.60;;;;;;5055196;28;20485;-89
2022/06/17 06:35:19;;;;;;;3.20;2.30;;;;;;;;;;5055297;28;20493;-89
2022/06/17 06:37:47;;;;;;;3.03;2.37;;;;;;;;;;5052908;28;20522;-88
2022/06/17 06:40:14;;;;;;;2.07;1.87;;;;;;;;;;5055200;28;20451;-87
2022/06/17 06:42:43;;;;;;;2.90;2.70;;;22.80;72.90;;;;;;5051799;28;20941;-88
2022/06/17 06:45:16;;;;;;;3.17;2.30;;;22.40;72.50;;;;;;5049700;28;20458;-87
2022/06/17 06:47:43;;;;;;;2.37;2.17;;;;;;;;;;5052777;28;20512;-88
2022/06/17 06:50:14;;;;;;;2.80;2.10;;;22.50;74.50;;;;;;5054983;28;20454;-88
2022/06/17 06:52:41;;;;;;;2.90;2.70;;;;;;;;;;5053552;28;20489;-88
2022/06/17 06:55:09;;;;;;;2.73;2.50;;;;;;;;;;5055085;28;20459;-91
2022/06/17 06:57:36;;;;;;;3.03;2.27;;;;;;;;;;5055017;28;20457;-90
2022/06/17 07:00:07;;;;;;;2.77;2.30;;;23.70;74.20;;;;;;5054936;28;20454;-89
2022/06/17 07:02:34;;;;;;;2.77;2.57;;;;;;;;;;5055419;28;20962;-88
2022/06/17 07:05:01;;;;;;;2.60;2.40;;;;;;;;;;5052145;28;20446;-90
2022/06/17 07:07:28;;;;;;;5.10;2.43;;;;;;;;;;5053904;28;20442;-89
2022/06/17 07:09:55;;;;;;;3.90;2.57;;;;;;;;;;5054954;28;20450;-91
2022/06/17 07:12:22;;;;;;;2.43;2.23;;;;;;;;;;5054999;28;20447;-92
2022/06/17 07:14:50;;;;;;;2.43;2.23;;;;;;;;;;5054588;28;20493;-88
2022/06/17 07:17:18;;;;;;;3.47;2.83;;;23.10;74.50;;;;;;5054456;28;20925;-88
2022/06/17 07:19:45;;;;;;;3.60;2.73;;;;;;;;;;5051359;28;20448;-85
2022/06/17 07:22:12;;;;;;;2.70;2.50;;;;;;;;;;5053156;28;20818;-88
2022/06/17 07:24:39;;;;;;;4.77;2.80;;;;;;;;;;5054534;28;20450;-85
2022/06/17 07:27:07;;;;;;;3.00;2.80;;;;;;;;;;5054425;28;20455;-90
2022/06/17 07:29:34;;;;;;;2.67;2.47;;;;;;;;;;5054407;28;20482;-90
2022/06/17 07:32:01;;;;;;;2.30;2.10;;;;;;;;;;5055720;28;20450;-88
2022/06/17 07:34:29;;;;;;;2.90;2.70;;;24.60;73.00;;;;;;5058022;28;20506;-88
2022/06/17 07:42:38;;;;;;;2.50;2.30;;;;;;;;;;5040888;28;20816;-88
2022/06/17 07:45:07;;;;;;;3.33;2.47;;;25.30;68.50;;;;;;5054404;28;20832;-87
2022/06/17 07:47:34;;;;;;;2.77;2.30;;;;;;;;;;5053986;28;20462;-88
2022/06/17 07:50:04;;;;;;;2.47;2.20;;;25.30;84.80;;;;;;5053888;28;20864;-88
2022/06/17 07:52:31;;;;;;;3.20;2.57;;;25.20;86.60;;;;;;5053027;28;20450;-88
2022/06/17 07:54:58;;;;;;;5.13;2.87;;;;;;;;;;5053861;28;20485;-89
2022/06/17 07:57:25;;;;;;;2.97;2.77;;;;;;;;;;5054112;28;20785;-87
2022/06/17 07:59:53;;;;;;;3.20;2.90;;;;;;;;;;5053900;28;20454;-88
2022/06/17 08:02:20;;;;;;;2.90;2.70;;;;;;;;;;5054137;28;20454;-86
2022/06/17 08:04:47;;;;;;;2.93;2.73;;;;;;;;;;5054547;28;20446;-87
2022/06/17 08:07:15;;;;;;;2.80;2.30;;;;;;;;;;5053216;28;20453;-89
2022/06/17 08:09:43;;;;;;;2.53;2.33;;;;;;;;;;5053942;28;20457;-88
2022/06/17 08:12:13;;;;;;;4.30;2.60;;;;;;;;;;5053364;28;20950;-89
2022/06/17 08:14:43;;;;;;;2.70;2.50;;;24.30;76.70;;;;;;5053319;28;20547;-88
2022/06/17 08:17:12;;;;;;;4.60;2.70;;;25.40;73.50;;;;;;5053470;28;20456;-87
2022/06/17 08:19:39;;;;;;;3.00;2.53;;;;;;;;;;5053417;28;20493;-88
2022/06/17 08:22:06;;;;;;;3.77;2.93;;;;;;;;;;5051912;28;20454;-89
2022/06/17 08:24:35;;;;;;;2.53;2.20;;;25.40;72.20;;;;;;5053290;28;20451;-91
2022/06/17 08:27:02;;;;;;;5.47;2.90;;;;;;;;;;5053145;28;20445;-89
2022/06/17 08:29:29;;;;;;;3.53;2.67;;;;;;;;;;5051177;28;20486;-86
2022/06/17 08:32:44;;;;;;;2.67;2.47;;;;;;;;;;5053040;28;20455;-88
2022/06/17 08:34:44;;;;;;;8.00;3.00;;;;;;;;;;5052676;28;20486;-87
2022/06/17 08:37:13;;;;;;;3.23;2.37;;;26.60;61.80;;;;;;5051699;28;21017;-90
2022/06/17 08:39:42;;;;;;;2.70;2.50;;;25.90;63.10;;;;;;5053229;28;20489;-87
2022/06/17 08:42:25;;;;;;;2.70;2.50;;;26.70;59.20;;;;;;5053195;28;20447;-91
2022/06/17 08:45:02;;;;;;;5.50;2.60;;;27.10;60.30;;;;;;5052919;28;20446;-88
2022/06/17 08:47:43;;;;;;;3.70;2.70;;;26.60;59.40;;;;;;5047764;28;20537;-90
2022/06/17 08:50:30;;;;;;;2.80;2.60;;;26.50;59.20;;;;;;5053029;28;20445;-92
2022/06/17 08:53:18;;;;;;;3.37;2.93;;;27.00;58.60;;;;;;5046505;28;20442;-88
2022/06/17 08:55:51;;;;;;;2.90;2.63;;;27.40;59.10;;;;;;5052992;28;20447;-86
2022/06/17 08:58:26;;;;;;;4.20;3.10;;;27.40;58.70;;;;;;5047772;28;20450;-87
2022/06/17 09:00:58;;;;;;;4.03;2.33;;;27.30;58.40;;;;;;5050303;28;20448;-87
2022/06/17 09:03:51;;;;;;;3.00;2.40;;;27.60;56.90;;;;;;5056947;28;20458;-88
2022/06/17 09:06:36;;;;;;;2.73;2.47;;;27.90;58.50;;;;;;5055661;28;20446;-87
2022/06/17 09:09:14;;;;;;;2.87;2.67;;;27.20;57.80;;;;;;5057314;28;20438;-87
2022/06/17 09:11:54;;;;;;;5.23;2.83;;;27.60;57.70;;;;;;5056895;28;20464;-87
2022/06/17 09:14:33;;;;;;;2.80;2.60;;;27.30;56.40;;;;;;5057375;28;20490;-92
2022/06/17 09:17:13;;;;;;;2.63;2.43;;;27.50;55.60;;;;;;5056856;28;20458;-87
2022/06/17 09:19:49;;;;;;;2.63;2.43;;;27.70;57.60;;;;;;5056812;28;20458;-87
2022/06/17 09:22:23;;;;;;;3.23;2.63;;;27.80;59.90;;;;;;5055246;28;20554;-88
2022/06/17 09:24:52;;;;;;;6.00;2.73;;;28.40;59.40;;;;;;5056474;28;20446;-87
2022/06/17 09:27:25;;;;;;;3.13;2.33;;;27.90;56.40;;;;;;5056534;28;20453;-88
2022/06/17 09:29:59;;;;;;;4.43;2.60;;;27.50;55.00;;;;;;5056310;28;20485;-88
2022/06/17 09:32:31;;;;;;;5.03;2.60;;;27.00;57.90;;;;;;5051148;28;20454;-88
2022/06/17 09:35:04;;;;;;;3.77;2.67;;;27.20;58.10;;;;;;5056182;28;20498;-88
2022/06/17 09:37:37;;;;;;;2.83;2.57;;;27.40;56.80;;;;;;5055048;28;20516;-88
2022/06/17 09:40:10;;;;;;;2.57;2.37;;;28.30;53.60;;;;;;5056128;28;20450;-87
2022/06/17 09:42:43;;;;;;;2.87;2.60;;;28.30;54.20;;;;;;5056828;28;20811;-89
2022/06/17 09:45:16;;;;;;;2.83;2.63;;;27.70;54.40;;;;;;5053517;28;20446;-87
2022/06/17 09:47:47;;;;;;;3.70;3.23;;;28.00;54.20;;;;;;5052235;28;20447;-88
2022/06/17 09:50:20;;;;;;;3.23;2.90;;;28.20;54.70;;;;;;5056028;28;20463;-87
2022/06/17 09:52:52;;;;;;;3.20;3.00;;;29.40;52.00;;;;;;5054800;28;20446;-88
2022/06/17 09:55:26;;;;;;;3.00;2.80;;;29.50;50.50;;;;;;5053102;28;20509;-92
2022/06/17 09:57:58;;;;;;;2.33;2.23;;;29.00;49.20;;;;;;5051158;28;20446;-88
2022/06/17 10:00:31;;;;;;;2.53;2.33;;;28.90;49.60;;;;;;5055950;28;20461;-88
2022/06/17 10:03:15;;;;;;;2.40;2.20;;;28.10;49.90;;;;;;5056352;28;20779;-89
2022/06/17 10:05:52;;;;;;;2.27;2.10;;;28.80;49.40;;;;;;5070440;28;20465;-88
2022/06/17 10:08:26;;;;;;;2.50;2.30;;;29.20;51.40;;;;;;5056179;28;20933;-88
2022/06/17 10:11:05;;;;;;;2.80;2.60;;;29.40;48.60;;;;;;5055020;28;20513;-87
2022/06/17 10:13:40;;;;;;;2.57;2.37;;;29.20;48.60;;;;;;5055561;28;20957;-89
2022/06/17 10:19:13;;;;;;;4.67;2.20;;;28.60;53.60;;;;;;5064437;28;20429;-88
2022/06/17 10:21:55;;;;;;;2.57;2.37;;;28.90;51.30;;;;;;5079623;28;20431;-88
2022/06/17 10:24:28;;;;;;;2.40;2.30;;;29.70;50.10;;;;;;5055715;28;20466;-88
2022/06/17 10:27:09;;;;;;;3.50;2.43;;;29.60;49.50;;;;;;5056409;28;20446;-89
2022/06/17 10:29:58;;;;;;;3.73;3.00;;;28.90;50.30;;;;;;5056603;28;20478;-90
2022/06/17 10:32:27;;;;;;;2.93;2.70;;;29.10;53.40;;;;;;5055392;28;20450;-91
2022/06/17 10:34:58;;;;;;;4.00;2.80;;;28.90;52.00;;;;;;5055411;28;20509;-90
2022/06/17 10:37:27;;;;;;;4.20;3.43;;;29.30;50.70;;;;;;5054128;28;20527;-90
2022/06/17 10:39:54;;;;;;;3.20;2.70;;;;;;;;;;5055234;28;20477;-87
2022/06/17 10:42:24;;;;;;;3.20;3.00;;;29.00;49.30;;;;;;5055384;28;20477;-86
2022/06/17 10:44:53;;;;;;;3.67;2.70;;;28.90;50.30;;;;;;5055130;28;20449;-87
2022/06/17 10:47:32;;;;;;;3.00;2.80;;;29.20;48.20;;;;;;5055270;28;20450;-87
2022/06/17 10:50:03;;;;;;;3.03;2.73;;;28.40;50.20;;;;;;5055042;28;20541;-92
2022/06/17 10:52:37;;;;;;;3.13;2.83;;;27.40;53.80;;;;;;5054031;28;20611;-88
2022/06/17 10:55:05;;;;;;;2.93;2.70;;;28.60;50.80;;;;;;5054580;28;20568;-92
2022/06/17 10:57:37;;;;;;;3.03;2.80;;;28.70;49.90;;;;;;5054865;28;20450;-87
2022/06/17 11:00:23;;;;;;;6.37;3.10;;;28.70;75.90;;;;;;5054844;28;20451;-87
2022/06/17 11:02:52;;;;;;;3.60;2.20;;;28.40;49.00;;;;;;5051645;28;20438;-87
2022/06/17 11:05:31;;;;;;;2.40;2.30;;;28.70;57.60;;;;;;5051667;28;20442;-88
2022/06/17 11:07:58;;;;;;;208.37;121.93;;;;;;;;;;5053281;28;20482;-88
2022/06/17 11:10:28;;;;;;;227.27;112.37;;;27.10;81.50;;;;;;5054367;28;20937;-89
2022/06/17 11:12:59;;;;;;;3.00;2.73;;;27.10;56.30;;;;;;5054445;28;20956;-88
2022/06/17 11:15:28;;;;;;;3.87;3.47;;;28.10;74.60;;;;;;5054165;28;20996;-88
2022/06/17 11:17:57;;;;;;;5.00;4.10;;;;;;;;;;5054632;28;20461;-93
2022/06/17 11:20:26;;;;;;;15.80;14.60;;;28.50;78.30;;;;;;5051416;28;20814;-87
2022/06/17 11:22:56;;;;;;;95.90;67.53;;;29.00;85.40;;;;;;5053376;28;20457;-91
2022/06/17 11:25:28;;;;;;;3.87;3.57;;;28.80;62.30;;;;;;5055144;28;20815;-87
2022/06/17 11:27:57;;;;;;;3.70;3.27;;;29.10;59.20;;;;;;5051707;28;20998;-86
2022/06/17 11:30:30;;;;;;;3.07;2.77;;;29.20;69.80;;;;;;5054516;28;20807;-87
2022/06/17 11:33:00;;;;;;;3.60;2.80;;;28.50;62.50;;;;;;5054072;28;20458;-91
2022/06/17 11:35:38;;;;;;;2.67;2.47;;;27.20;63.60;;;;;;5053954;28;20498;-90
2022/06/17 11:38:12;;;;;;;4.17;2.80;;;27.20;64.80;;;;;;5052918;28;20447;-91
2022/06/17 11:40:50;;;;;;;2.37;2.17;;;27.90;55.80;;;;;;5053783;28;20469;-87
2022/06/17 11:43:35;;;;;;;2.97;2.77;;;28.40;59.10;;;;;;5053816;28;20841;-87
2022/06/17 11:46:11;;;;;;;2.30;2.10;;;28.70;51.40;;;;;;5054147;28;20469;-86
2022/06/17 11:48:43;;;;;;;2.77;2.20;;;28.70;54.40;;;;;;5054044;28;20446;-88
2022/06/17 11:51:12;;;;;;;4.27;3.87;;;29.20;57.10;;;;;;5052270;28;20457;-87
2022/06/17 11:53:46;;;;;;;3.03;2.83;;;29.60;60.70;;;;;;5053684;28;20450;-87
2022/06/17 11:56:28;;;;;;;2.43;2.20;;;30.20;56.20;;;;;;5053671;28;20528;-90
2022/06/17 11:58:56;;;;;;;3.80;2.50;;;;;;;;;;5054147;28;20454;-92
2022/06/17 12:01:23;;;;;;;3.03;2.83;;;;;;;;;;5053649;28;20443;-87
2022/06/17 12:03:51;;;;;;;3.40;2.97;;;;;;;;;;5053555;28;20457;-88
2022/06/17 12:06:26;;;;;;;2.13;2.03;;;30.40;41.90;;;;;;5052264;28;20461;-88
2022/06/17 12:09:00;;;;;;;2.50;2.30;;;30.20;49.70;;;;;;5053502;28;20450;-88
2022/06/17 12:11:35;;;;;;;2.93;2.27;;;30.30;60.30;;;;;;5053802;28;20972;-89
2022/06/17 12:14:06;;;;;;;4.35;3.85;;;30.30;60.90;;;;;;5053521;28;20802;-88
2022/06/17 12:16:42;;;;;;;4.00;3.60;;;30.10;61.90;;;;;;5053590;28;20453;-89
2022/06/17 12:19:17;;;;;;;6.13;5.57;;;30.40;65.20;;;;;;5053089;28;20446;-88
2022/06/17 12:21:49;;;;;;;16.37;15.30;;;;;;;;;;5051982;28;20454;-88
2022/06/17 12:24:23;;;;;;;18.47;16.57;;;;;;;;;;5053184;28;20454;-88
2022/06/17 12:26:57;;;;;;;2.13;1.97;;;30.70;61.90;;;;;;5053288;28;20520;-90
2022/06/17 12:29:30;;;;;;;2.33;2.13;;;31.10;57.90;;;;;;5056161;28;20486;-90
2022/06/17 12:32:05;;;;;;;2.20;2.00;;;31.20;58.70;;;;;;5052198;28;20953;-88
2022/06/17 12:34:38;;;;;;;2.93;2.63;;;30.60;59.10;;;;;;5052163;28;20489;-87
2022/06/17 12:37:13;;;;;;;2.10;1.90;;;29.60;44.60;;;;;;5052551;28;20537;-87
2022/06/17 12:39:49;;;;;;;2.10;1.90;;;30.00;43.40;;;;;;5053083;28;20486;-88
2022/06/17 12:42:22;;;;;;;3.03;2.00;;;30.70;42.80;;;;;;5053041;28;20457;-87
2022/06/17 12:45:00;;;;;;;2.13;1.73;;;31.20;41.60;;;;;;5050248;28;20451;-88
2022/06/17 12:47:36;;;;;;;4.07;2.07;;;31.20;44.20;;;;;;5049983;28;20780;-89
2022/06/17 12:55:56;;;;;;;2.07;1.97;;;30.60;41.70;;;;;;5051595;28;20482;-88
2022/06/17 12:58:37;;;;;;;1.93;1.80;;;29.50;38.60;;;;;;5068128;28;20454;-89
2022/06/17 13:01:10;;;;;;;2.73;2.47;;;30.40;42.40;;;;;;5071977;28;20450;-87
2022/06/17 13:04:02;;;;;;;2.07;1.90;;;30.20;37.20;;;;;;5053202;28;20545;-89
2022/06/17 13:06:39;;;;;;;2.57;1.87;;;30.60;35.60;;;;;;5051847;28;20457;-88
2022/06/17 13:09:11;;;;;;;2.10;2.00;;;30.40;35.20;;;;;;5053466;28;20952;-87
2022/06/17 13:11:47;;;;;;;1.90;1.70;;;30.90;40.30;;;;;;5054048;28;20453;-87
2022/06/17 13:14:24;;;;;;;2.30;1.60;;;30.90;39.00;;;;;;5053054;28;20457;-89
2022/06/17 13:16:56;;;;;;;1.60;1.50;;;31.00;38.20;;;;;;5049257;28;20461;-88
2022/06/17 13:19:32;;;;;;;1.70;1.60;;;31.00;34.70;;;;;;5048662;28;20457;-91
2022/06/17 13:22:10;;;;;;;2.70;1.83;;;30.80;39.20;;;;;;5051416;28;20453;-88
2022/06/17 13:24:42;;;;;;;1.87;1.77;;;31.30;33.80;;;;;;5047232;28;20443;-88
2022/06/17 13:27:28;;;;;;;1.97;1.80;;;31.20;32.90;;;;;;5052807;28;21106;-87
2022/06/17 13:30:02;;;;;;;2.17;1.97;;;31.20;37.40;;;;;;5053063;28;20623;-90
2022/06/17 13:32:32;;;;;;;2.70;1.70;;;30.20;38.90;;;;;;5053471;28;21037;-88
2022/06/17 13:35:04;;;;;;;2.03;1.60;;;30.20;38.80;;;;;;5052719;28;20498;-87
2022/06/17 13:37:37;;;;;;;1.73;1.63;;;30.40;42.20;;;;;;5051883;28;20454;-88
2022/06/17 13:40:08;;;;;;;2.23;1.73;;;30.30;42.10;;;;;;5053108;28;20946;-87
2022/06/17 13:42:35;;;;;;;1.80;1.70;;;;;;;;;;5052564;28;20781;-88
2022/06/17 13:45:13;;;;;;;2.07;1.93;;;30.50;41.20;;;;;;5052736;28;20438;-90
2022/06/17 13:47:51;;;;;;;4.30;1.53;;;29.60;41.90;;;;;;5055396;28;20442;-88
2022/06/17 13:50:28;;;;;;;2.00;1.70;;;29.50;50.60;;;;;;5056646;28;20809;-88
2022/06/17 13:53:04;;;;;;;2.40;2.20;;;30.10;52.80;;;;;;5055458;28;20469;-90
2022/06/17 13:55:42;;;;;;;3.67;1.60;;;30.10;50.70;;;;;;5052456;28;20482;-87